sensor_id;sensor_type;location;lat;lon;timestamp;pressure;altitude;pressure_sealevel;temperature;humidity
21664;BME280;10993;52.510;13.456;2023-01-31T00:04:17;56660.00;;;-146.93;68.63
21664;BME280;10993;52.510;13.456;2023-01-31T00:09:19;56649.88;;;-146.93;67.92
21664;BME280;10993;52.510;13.456;2023-01-31T00:14:19;56779.47;;;-146.93;68.64
21664;BME280;10993;52.510;13.456;2023-01-31T00:19:20;56645.81;;;-146.93;69.10
21664;BME280;10993;52.510;13.456;2023-01-31T00:24:21;56645.81;;;-146.93;68.88
21664;BME280;10993;52.510;13.456;2023-01-31T00:29:22;56660.00;;;-146.93;69.04
21664;BME280;10993;52.510;13.456;2023-01-31T00:34:23;56617.47;;;-146.93;69.82
21664;BME280;10993;52.510;13.456;2023-01-31T00:39:25;56641.78;;;-146.93;69.66
21664;BME280;10993;52.510;13.456;2023-01-31T00:44:25;56651.91;;;-146.93;68.90
21664;BME280;10993;52.510;13.456;2023-01-31T00:49:25;56670.13;;;-146.93;68.78
21664;BME280;10993;52.510;13.456;2023-01-31T00:54:27;56635.72;;;-146.93;69.36
21664;BME280;10993;52.510;13.456;2023-01-31T00:59:27;56651.91;;;-146.93;68.47
21664;BME280;10993;52.510;13.456;2023-01-31T01:04:28;56639.75;;;-146.93;67.51
21664;BME280;10993;52.510;13.456;2023-01-31T01:09:30;56635.72;;;-146.93;66.71
21664;BME280;10993;52.510;13.456;2023-01-31T01:14:30;56617.47;;;-146.93;66.38
21664;BME280;10993;52.510;13.456;2023-01-31T01:19:30;56643.81;;;-146.93;65.71
21664;BME280;10993;52.510;13.456;2023-01-31T01:24:32;56633.69;;;-146.93;65.45
21664;BME280;10993;52.510;13.456;2023-01-31T01:29:32;56613.44;;;-146.93;65.39
21664;BME280;10993;52.510;13.456;2023-01-31T01:34:34;56536.50;;;-146.93;65.36
21664;BME280;10993;52.510;13.456;2023-01-31T01:39:36;56633.69;;;-146.93;65.37
21664;BME280;10993;52.510;13.456;2023-01-31T01:44:55;56631.66;;;-146.93;65.50
21664;BME280;10993;52.510;13.456;2023-01-31T01:49:59;56633.69;;;-146.93;65.00
21664;BME280;10993;52.510;13.456;2023-01-31T01:55:10;56662.03;;;-146.93;65.12
21664;BME280;10993;52.510;13.456;2023-01-31T02:00:15;57200.66;;;-146.93;65.44
21664;BME280;10993;52.510;13.456;2023-01-31T02:05:21;56627.59;;;-146.93;64.82
21664;BME280;10993;52.510;13.456;2023-01-31T02:10:29;56641.78;;;-146.93;65.41
21664;BME280;10993;52.510;13.456;2023-01-31T02:15:30;56637.72;;;-146.93;65.63
21664;BME280;10993;52.510;13.456;2023-01-31T02:20:58;56601.28;;;-146.93;65.52
21664;BME280;10993;52.510;13.456;2023-01-31T02:26:35;56629.63;;;-146.93;65.66
21664;BME280;10993;52.510;13.456;2023-01-31T02:32:12;56629.63;;;-146.93;65.44
21664;BME280;10993;52.510;13.456;2023-01-31T02:37:21;56544.59;;;-146.93;64.94
21664;BME280;10993;52.510;13.456;2023-01-31T02:42:34;57395.06;;;-146.93;65.06
21664;BME280;10993;52.510;13.456;2023-01-31T02:47:48;56647.84;;;-146.93;64.45
21664;BME280;10993;52.510;13.456;2023-01-31T02:52:54;56643.81;;;-146.93;64.23
21664;BME280;10993;52.510;13.456;2023-01-31T02:57:59;56637.72;;;-146.93;64.82
21664;BME280;10993;52.510;13.456;2023-01-31T03:03:05;56611.41;;;-146.93;66.16
21664;BME280;10993;52.510;13.456;2023-01-31T03:08:09;56611.41;;;-146.93;67.44
21664;BME280;10993;52.510;13.456;2023-01-31T03:13:26;56653.94;;;-146.93;67.86
21664;BME280;10993;52.510;13.456;2023-01-31T03:18:37;56641.78;;;-146.93;69.00
21664;BME280;10993;52.510;13.456;2023-01-31T03:23:44;56591.16;;;-146.93;69.88
21664;BME280;10993;52.510;13.456;2023-01-31T03:28:48;56643.81;;;-146.93;70.64
21664;BME280;10993;52.510;13.456;2023-01-31T03:33:58;56649.88;;;-146.93;71.15
21664;BME280;10993;52.510;13.456;2023-01-31T03:39:07;56595.22;;;-146.93;72.52
21664;BME280;10993;52.510;13.456;2023-01-31T03:44:13;56676.19;;;-146.93;72.31
21664;BME280;10993;52.510;13.456;2023-01-31T03:49:17;56643.81;;;-146.93;72.49
21664;BME280;10993;52.510;13.456;2023-01-31T03:54:23;56639.75;;;-146.93;73.39
21664;BME280;10993;52.510;13.456;2023-01-31T03:59:31;56672.16;;;-146.93;73.72
21664;BME280;10993;52.510;13.456;2023-01-31T04:04:38;56633.69;;;-146.93;73.50
21664;BME280;10993;52.510;13.456;2023-01-31T04:09:39;56651.91;;;-146.93;73.39
21664;BME280;10993;52.510;13.456;2023-01-31T04:14:40;56625.59;;;-146.93;73.93
21664;BME280;10993;52.510;13.456;2023-01-31T04:19:42;56662.03;;;-146.93;74.22
21664;BME280;10993;52.510;13.456;2023-01-31T04:24:43;56609.38;;;-146.93;74.22
21664;BME280;10993;52.510;13.456;2023-01-31T04:29:43;56649.88;;;-146.93;74.71
21664;BME280;10993;52.510;13.456;2023-01-31T04:34:45;56526.38;;;-146.93;75.35
21664;BME280;10993;52.510;13.456;2023-01-31T04:39:45;56635.72;;;-146.93;75.95
21664;BME280;10993;52.510;13.456;2023-01-31T04:44:45;56657.97;;;-146.93;76.75
21664;BME280;10993;52.510;13.456;2023-01-31T04:49:47;56649.88;;;-146.93;76.88
21664;BME280;10993;52.510;13.456;2023-01-31T04:54:47;56674.19;;;-146.93;77.42
21664;BME280;10993;52.510;13.456;2023-01-31T04:59:48;56637.72;;;-146.93;76.93
21664;BME280;10993;52.510;13.456;2023-01-31T05:04:50;56682.28;;;-146.93;77.28
21664;BME280;10993;52.510;13.456;2023-01-31T05:09:51;56666.06;;;-146.93;76.78
21664;BME280;10993;52.510;13.456;2023-01-31T05:14:51;56662.03;;;-146.93;77.15
21664;BME280;10993;52.510;13.456;2023-01-31T05:19:53;56639.75;;;-146.93;77.23
21664;BME280;10993;52.510;13.456;2023-01-31T05:24:53;56637.72;;;-146.93;77.16
21664;BME280;10993;52.510;13.456;2023-01-31T05:29:53;56651.91;;;-146.93;76.77
21664;BME280;10993;52.510;13.456;2023-01-31T05:34:55;56666.06;;;-146.93;76.69
21664;BME280;10993;52.510;13.456;2023-01-31T05:39:55;56629.63;;;-146.93;76.94
21664;BME280;10993;52.510;13.456;2023-01-31T05:44:56;56738.97;;;-146.93;75.94
21664;BME280;10993;52.510;13.456;2023-01-31T05:49:57;56911.09;;;-146.93;75.01
21664;BME280;10993;52.510;13.456;2023-01-31T05:54:58;56645.81;;;-146.93;74.12
21664;BME280;10993;52.510;13.456;2023-01-31T05:59:58;56627.59;;;-146.93;73.36
21664;BME280;10993;52.510;13.456;2023-01-31T06:05:01;56613.44;;;-146.93;73.41
21664;BME280;10993;52.510;13.456;2023-01-31T06:10:02;56633.69;;;-146.93;73.35
21664;BME280;10993;52.510;13.456;2023-01-31T06:15:03;56617.47;;;-146.93;73.57
21664;BME280;10993;52.510;13.456;2023-01-31T06:20:06;56657.97;;;-146.93;73.11
21664;BME280;10993;52.510;13.456;2023-01-31T06:25:08;56625.59;;;-146.93;72.54
21664;BME280;10993;52.510;13.456;2023-01-31T06:30:09;56633.69;;;-146.93;72.52
21664;BME280;10993;52.510;13.456;2023-01-31T06:35:11;56635.72;;;-146.93;73.24
21664;BME280;10993;52.510;13.456;2023-01-31T06:40:12;56611.41;;;-146.93;71.78
21664;BME280;10993;52.510;13.456;2023-01-31T06:45:12;56621.53;;;-146.93;71.65
21664;BME280;10993;52.510;13.456;2023-01-31T06:50:14;56621.53;;;-146.93;71.47
21664;BME280;10993;52.510;13.456;2023-01-31T06:55:15;56613.44;;;-146.93;72.17
21664;BME280;10993;52.510;13.456;2023-01-31T07:00:16;56619.50;;;-146.93;71.65
21664;BME280;10993;52.510;13.456;2023-01-31T07:05:19;56625.59;;;-146.93;71.98
21664;BME280;10993;52.510;13.456;2023-01-31T07:10:19;56621.53;;;-146.93;71.95
21664;BME280;10993;52.510;13.456;2023-01-31T07:15:20;56615.47;;;-146.93;72.10
21664;BME280;10993;52.510;13.456;2023-01-31T07:20:22;56607.34;;;-146.93;72.47
21664;BME280;10993;52.510;13.456;2023-01-31T07:25:22;56621.53;;;-146.93;72.84
21664;BME280;10993;52.510;13.456;2023-01-31T07:30:22;56623.56;;;-146.93;73.13
21664;BME280;10993;52.510;13.456;2023-01-31T07:35:24;56621.53;;;-146.93;73.37
21664;BME280;10993;52.510;13.456;2023-01-31T07:40:24;56354.28;;;-146.93;74.35
21664;BME280;10993;52.510;13.456;2023-01-31T07:45:25;56570.91;;;-146.93;74.42
21664;BME280;10993;52.510;13.456;2023-01-31T07:50:27;56601.28;;;-146.93;74.12
21664;BME280;10993;52.510;13.456;2023-01-31T07:55:27;56512.19;;;-146.93;73.82
21664;BME280;10993;52.510;13.456;2023-01-31T08:00:28;56613.44;;;-146.93;74.45
21664;BME280;10993;52.510;13.456;2023-01-31T08:05:48;56540.53;;;-146.93;73.93
21664;BME280;10993;52.510;13.456;2023-01-31T08:10:49;56637.72;;;-146.93;74.09
21664;BME280;10993;52.510;13.456;2023-01-31T08:15:50;56607.34;;;-146.93;73.80
21664;BME280;10993;52.510;13.456;2023-01-31T08:20:51;56625.59;;;-146.93;74.08
21664;BME280;10993;52.510;13.456;2023-01-31T08:25:52;56605.34;;;-146.93;73.05
21664;BME280;10993;52.510;13.456;2023-01-31T08:30:58;56579.00;;;-146.93;72.99
21664;BME280;10993;52.510;13.456;2023-01-31T08:36:08;56597.25;;;-146.93;72.88
21664;BME280;10993;52.510;13.456;2023-01-31T08:41:09;56615.47;;;-146.93;72.59
21664;BME280;10993;52.510;13.456;2023-01-31T08:46:10;56641.78;;;-146.93;74.70
21664;BME280;10993;52.510;13.456;2023-01-31T08:51:12;56617.47;;;-146.93;74.86
21664;BME280;10993;52.510;13.456;2023-01-31T08:56:13;57273.56;;;-146.93;74.27
21664;BME280;10993;52.510;13.456;2023-01-31T09:01:17;56625.59;;;-146.93;74.37
21664;BME280;10993;52.510;13.456;2023-01-31T09:06:20;56629.63;;;-146.93;73.48
21664;BME280;10993;52.510;13.456;2023-01-31T09:11:21;56621.53;;;-146.93;73.28
21664;BME280;10993;52.510;13.456;2023-01-31T09:16:22;56613.44;;;-146.93;72.14
21664;BME280;10993;52.510;13.456;2023-01-31T09:21:24;56605.34;;;-146.93;71.74
21664;BME280;10993;52.510;13.456;2023-01-31T09:26:24;56579.00;;;-146.93;71.79
21664;BME280;10993;52.510;13.456;2023-01-31T09:31:24;56629.63;;;-146.93;71.14
21664;BME280;10993;52.510;13.456;2023-01-31T09:36:26;56585.09;;;-146.93;70.51
21664;BME280;10993;52.510;13.456;2023-01-31T09:41:31;56621.53;;;-146.93;70.55
21664;BME280;10993;52.510;13.456;2023-01-31T09:46:35;56607.34;;;-146.93;68.47
21664;BME280;10993;52.510;13.456;2023-01-31T09:51:38;56536.50;;;-146.93;67.33
21664;BME280;10993;52.510;13.456;2023-01-31T09:56:54;56483.84;;;-146.93;66.76
21664;BME280;10993;52.510;13.456;2023-01-31T10:02:07;56639.75;;;-146.93;64.74
21664;BME280;10993;52.510;13.456;2023-01-31T10:07:21;56570.91;;;-146.93;65.08
21664;BME280;10993;52.510;13.456;2023-01-31T10:12:27;56496.00;;;-146.93;65.25
21664;BME280;10993;52.510;13.456;2023-01-31T10:17:32;56905.00;;;-146.93;65.59
21664;BME280;10993;52.510;13.456;2023-01-31T10:22:38;56554.72;;;-146.93;64.58
21664;BME280;10993;52.510;13.456;2023-01-31T10:27:47;56601.28;;;-146.93;65.21
21664;BME280;10993;52.510;13.456;2023-01-31T10:32:50;56637.72;;;-146.93;65.07
21664;BME280;10993;52.510;13.456;2023-01-31T10:37:59;56615.47;;;-146.93;65.12
21664;BME280;10993;52.510;13.456;2023-01-31T10:43:07;56607.34;;;-146.93;67.45
21664;BME280;10993;52.510;13.456;2023-01-31T10:48:14;56619.50;;;-146.93;69.46
21664;BME280;10993;52.510;13.456;2023-01-31T10:53:30;56601.28;;;-146.93;69.25
21664;BME280;10993;52.510;13.456;2023-01-31T10:58:35;56621.53;;;-146.93;67.46
21664;BME280;10993;52.510;13.456;2023-01-31T11:03:36;56629.63;;;-146.93;66.28
21664;BME280;10993;52.510;13.456;2023-01-31T11:08:42;56647.84;;;-146.93;65.07
21664;BME280;10993;52.510;13.456;2023-01-31T11:13:55;56645.81;;;-146.93;64.32
21664;BME280;10993;52.510;13.456;2023-01-31T11:18:56;56577.00;;;-146.93;63.47
21664;BME280;10993;52.510;13.456;2023-01-31T11:24:01;56589.13;;;-146.93;63.82
21664;BME280;10993;52.510;13.456;2023-01-31T11:29:06;56623.56;;;-146.93;66.23
21664;BME280;10993;52.510;13.456;2023-01-31T11:34:18;56619.50;;;-146.93;68.09
21664;BME280;10993;52.510;13.456;2023-01-31T11:39:29;56522.31;;;-146.93;70.19
21664;BME280;10993;52.510;13.456;2023-01-31T11:44:30;56631.66;;;-146.93;71.57
21664;BME280;10993;52.510;13.456;2023-01-31T11:49:33;56487.91;;;-146.93;71.99
21664;BME280;10993;52.510;13.456;2023-01-31T11:54:35;56615.47;;;-146.93;71.46
21664;BME280;10993;52.510;13.456;2023-01-31T11:59:36;56621.53;;;-146.93;71.64
21664;BME280;10993;52.510;13.456;2023-01-31T12:04:40;56629.63;;;-146.93;71.85
21664;BME280;10993;52.510;13.456;2023-01-31T12:09:43;56445.38;;;-146.93;71.40
21664;BME280;10993;52.510;13.456;2023-01-31T12:14:46;56694.41;;;-146.93;72.22
21664;BME280;10993;52.510;13.456;2023-01-31T12:19:55;56570.91;;;-146.93;75.04
21664;BME280;10993;52.510;13.456;2023-01-31T12:25:09;56599.25;;;-146.93;76.98
21664;BME280;10993;52.510;13.456;2023-01-31T12:30:20;57178.38;;;-146.93;76.59
21664;BME280;10993;52.510;13.456;2023-01-31T12:35:34;56526.38;;;-146.93;77.49
21664;BME280;10993;52.510;13.456;2023-01-31T12:40:43;56562.81;;;-146.93;78.53
21664;BME280;10993;52.510;13.456;2023-01-31T12:45:52;56621.53;;;-146.93;80.14
21664;BME280;10993;52.510;13.456;2023-01-31T12:51:03;56554.72;;;-146.93;81.02
21664;BME280;10993;52.510;13.456;2023-01-31T12:56:29;56649.88;;;-146.93;82.15
21664;BME280;10993;52.510;13.456;2023-01-31T13:01:38;56605.34;;;-146.93;83.38
21664;BME280;10993;52.510;13.456;2023-01-31T13:06:44;56548.66;;;-146.93;83.66
21664;BME280;10993;52.510;13.456;2023-01-31T13:11:51;56493.97;;;-146.93;84.72
21664;BME280;10993;52.510;13.456;2023-01-31T13:16:56;56536.50;;;-146.93;85.04
21664;BME280;10993;52.510;13.456;2023-01-31T13:22:01;56639.75;;;-146.93;85.66
21664;BME280;10993;52.510;13.456;2023-01-31T13:27:14;56572.94;;;-146.93;86.04
21664;BME280;10993;52.510;13.456;2023-01-31T13:32:20;56627.59;;;-146.93;86.24
21664;BME280;10993;52.510;13.456;2023-01-31T13:37:24;56629.63;;;-146.93;85.90
21664;BME280;10993;52.510;13.456;2023-01-31T13:42:28;56627.59;;;-146.93;85.57
21664;BME280;10993;52.510;13.456;2023-01-31T13:47:42;56540.53;;;-146.93;85.58
21664;BME280;10993;52.510;13.456;2023-01-31T13:52:46;56546.63;;;-146.93;86.06
21664;BME280;10993;52.510;13.456;2023-01-31T13:57:54;56589.13;;;-146.93;86.22
21664;BME280;10993;52.510;13.456;2023-01-31T14:02:59;56619.50;;;-146.93;86.67
21664;BME280;10993;52.510;13.456;2023-01-31T14:08:29;56615.47;;;-146.93;86.95
21664;BME280;10993;52.510;13.456;2023-01-31T14:13:42;56613.44;;;-146.93;87.37
21664;BME280;10993;52.510;13.456;2023-01-31T14:18:44;56617.47;;;-146.93;87.96
21664;BME280;10993;52.510;13.456;2023-01-31T14:23:45;56603.31;;;-146.93;87.70
21664;BME280;10993;52.510;13.456;2023-01-31T14:28:47;56603.31;;;-146.93;87.86
21664;BME280;10993;52.510;13.456;2023-01-31T14:33:48;57378.88;;;-146.93;87.93
21664;BME280;10993;52.510;13.456;2023-01-31T14:39:13;56601.28;;;-146.93;87.93
21664;BME280;10993;52.510;13.456;2023-01-31T14:44:27;56601.28;;;-146.93;87.86
21664;BME280;10993;52.510;13.456;2023-01-31T14:49:48;56696.44;;;-146.93;88.76
21664;BME280;10993;52.510;13.456;2023-01-31T14:55:00;56585.09;;;-146.93;88.79
21664;BME280;10993;52.510;13.456;2023-01-31T15:00:17;56625.59;;;-146.93;89.04
21664;BME280;10993;52.510;13.456;2023-01-31T15:05:22;56566.88;;;-146.93;89.42
21664;BME280;10993;52.510;13.456;2023-01-31T15:10:56;56641.78;;;-146.93;89.53
21664;BME280;10993;52.510;13.456;2023-01-31T15:15:59;56627.59;;;-146.93;89.40
21664;BME280;10993;52.510;13.456;2023-01-31T15:21:04;56625.59;;;-146.93;89.37
21664;BME280;10993;52.510;13.456;2023-01-31T15:26:07;56625.59;;;-146.93;89.27
21664;BME280;10993;52.510;13.456;2023-01-31T15:31:16;56572.94;;;-146.93;89.63
21664;BME280;10993;52.510;13.456;2023-01-31T15:36:23;56445.38;;;-146.93;89.53
21664;BME280;10993;52.510;13.456;2023-01-31T15:41:25;56617.47;;;-146.93;89.66
21664;BME280;10993;52.510;13.456;2023-01-31T15:46:29;56587.13;;;-146.93;89.98
21664;BME280;10993;52.510;13.456;2023-01-31T15:51:30;56625.59;;;-146.93;89.78
21664;BME280;10993;52.510;13.456;2023-01-31T15:56:32;56611.41;;;-146.93;90.31
21664;BME280;10993;52.510;13.456;2023-01-31T16:01:34;56611.41;;;-146.93;90.41
21664;BME280;10993;52.510;13.456;2023-01-31T16:06:36;56558.75;;;-146.93;90.79
21664;BME280;10993;52.510;13.456;2023-01-31T16:11:37;56625.59;;;-146.93;91.39
21664;BME280;10993;52.510;13.456;2023-01-31T16:16:39;56623.56;;;-146.93;90.76
21664;BME280;10993;52.510;13.456;2023-01-31T16:21:40;56641.78;;;-146.93;90.84
21664;BME280;10993;52.510;13.456;2023-01-31T16:26:52;56619.50;;;-146.93;90.70
21664;BME280;10993;52.510;13.456;2023-01-31T16:31:55;56639.75;;;-146.93;90.22
21664;BME280;10993;52.510;13.456;2023-01-31T16:36:58;56591.16;;;-146.93;90.32
21664;BME280;10993;52.510;13.456;2023-01-31T16:41:59;56629.63;;;-146.93;90.18
21664;BME280;10993;52.510;13.456;2023-01-31T16:47:01;56625.59;;;-146.93;89.95
21664;BME280;10993;52.510;13.456;2023-01-31T16:52:15;56647.84;;;-146.93;89.61
21664;BME280;10993;52.510;13.456;2023-01-31T16:57:21;56623.56;;;-146.93;89.25
21664;BME280;10993;52.510;13.456;2023-01-31T17:02:25;56581.03;;;-146.93;89.49
21664;BME280;10993;52.510;13.456;2023-01-31T17:07:30;56613.44;;;-146.93;89.09
21664;BME280;10993;52.510;13.456;2023-01-31T17:12:33;56637.72;;;-146.93;89.96
21664;BME280;10993;52.510;13.456;2023-01-31T17:17:35;56621.53;;;-146.93;89.88
21664;BME280;10993;52.510;13.456;2023-01-31T17:22:36;56653.94;;;-146.93;89.61
21664;BME280;10993;52.510;13.456;2023-01-31T17:27:36;56568.88;;;-146.93;90.00
21664;BME280;10993;52.510;13.456;2023-01-31T17:32:38;56520.28;;;-146.93;90.17
21664;BME280;10993;52.510;13.456;2023-01-31T17:37:41;56627.59;;;-146.93;90.03
21664;BME280;10993;52.510;13.456;2023-01-31T17:42:42;56609.38;;;-146.93;90.41
21664;BME280;10993;52.510;13.456;2023-01-31T17:47:44;56356.31;;;-146.93;89.67
21664;BME280;10993;52.510;13.456;2023-01-31T17:52:45;56643.81;;;-146.93;89.91
21664;BME280;10993;52.510;13.456;2023-01-31T17:57:46;56674.19;;;-146.93;89.59
21664;BME280;10993;52.510;13.456;2023-01-31T18:02:47;56633.69;;;-146.93;89.36
21664;BME280;10993;52.510;13.456;2023-01-31T18:07:48;56609.38;;;-146.93;88.83
21664;BME280;10993;52.510;13.456;2023-01-31T18:12:48;56617.47;;;-146.93;88.91
21664;BME280;10993;52.510;13.456;2023-01-31T18:17:50;56613.44;;;-146.93;88.84
21664;BME280;10993;52.510;13.456;2023-01-31T18:22:51;56653.94;;;-146.93;88.65
21664;BME280;10993;52.510;13.456;2023-01-31T18:27:51;56613.44;;;-146.93;87.78
21664;BME280;10993;52.510;13.456;2023-01-31T18:32:52;56653.94;;;-146.93;86.97
21664;BME280;10993;52.510;13.456;2023-01-31T18:37:53;56619.50;;;-146.93;86.86
21664;BME280;10993;52.510;13.456;2023-01-31T18:42:54;56633.69;;;-146.93;86.01
21664;BME280;10993;52.510;13.456;2023-01-31T18:47:56;56645.81;;;-146.93;85.78
21664;BME280;10993;52.510;13.456;2023-01-31T18:52:56;56613.44;;;-146.93;85.38
21664;BME280;10993;52.510;13.456;2023-01-31T18:57:56;56621.53;;;-146.93;85.17
21664;BME280;10993;52.510;13.456;2023-01-31T19:02:58;56666.06;;;-146.93;86.03
21664;BME280;10993;52.510;13.456;2023-01-31T19:07:58;56629.63;;;-146.93;85.96
21664;BME280;10993;52.510;13.456;2023-01-31T19:12:59;56619.50;;;-146.93;85.39
21664;BME280;10993;52.510;13.456;2023-01-31T19:18:00;56633.69;;;-146.93;84.92
21664;BME280;10993;52.510;13.456;2023-01-31T19:23:00;56645.81;;;-146.93;83.99
21664;BME280;10993;52.510;13.456;2023-01-31T19:28:01;56516.25;;;-146.93;84.41
21664;BME280;10993;52.510;13.456;2023-01-31T19:33:03;56666.06;;;-146.93;83.70
21664;BME280;10993;52.510;13.456;2023-01-31T19:38:03;56619.50;;;-146.93;87.83
21664;BME280;10993;52.510;13.456;2023-01-31T19:43:04;56653.94;;;-146.93;88.62
21664;BME280;10993;52.510;13.456;2023-01-31T19:48:06;56617.47;;;-146.93;88.75
21664;BME280;10993;52.510;13.456;2023-01-31T19:53:06;56619.50;;;-146.93;87.45
21664;BME280;10993;52.510;13.456;2023-01-31T19:58:06;56593.19;;;-146.93;87.34
21664;BME280;10993;52.510;13.456;2023-01-31T20:03:08;56635.72;;;-146.93;87.37
21664;BME280;10993;52.510;13.456;2023-01-31T20:08:09;56635.72;;;-146.93;87.74
21664;BME280;10993;52.510;13.456;2023-01-31T20:13:09;56635.72;;;-146.93;88.43
21664;BME280;10993;52.510;13.456;2023-01-31T20:18:11;56662.03;;;-146.93;88.27
21664;BME280;10993;52.510;13.456;2023-01-31T20:23:11;56451.47;;;-146.93;87.30
21664;BME280;10993;52.510;13.456;2023-01-31T20:28:11;56649.88;;;-146.93;87.57
21664;BME280;10993;52.510;13.456;2023-01-31T20:33:14;56670.13;;;-146.93;87.49
21664;BME280;10993;52.510;13.456;2023-01-31T20:38:14;56621.53;;;-146.93;87.60
21664;BME280;10993;52.510;13.456;2023-01-31T20:43:17;56605.34;;;-146.93;88.23
21664;BME280;10993;52.510;13.456;2023-01-31T20:48:19;56647.84;;;-146.93;88.07
21664;BME280;10993;52.510;13.456;2023-01-31T20:53:20;56489.94;;;-146.93;87.53
21664;BME280;10993;52.510;13.456;2023-01-31T20:58:21;56635.72;;;-146.93;87.65
21664;BME280;10993;52.510;13.456;2023-01-31T21:03:23;56633.69;;;-146.93;87.65
21664;BME280;10993;52.510;13.456;2023-01-31T21:08:24;56657.97;;;-146.93;87.27
21664;BME280;10993;52.510;13.456;2023-01-31T21:13:25;56605.34;;;-146.93;86.95
21664;BME280;10993;52.510;13.456;2023-01-31T21:18:31;56625.59;;;-146.93;86.77
21664;BME280;10993;52.510;13.456;2023-01-31T21:23:32;56625.59;;;-146.93;86.38
21664;BME280;10993;52.510;13.456;2023-01-31T21:28:34;56637.72;;;-146.93;85.40
21664;BME280;10993;52.510;13.456;2023-01-31T21:33:36;56601.28;;;-146.93;84.34
21664;BME280;10993;52.510;13.456;2023-01-31T21:38:37;57403.16;;;-146.93;83.47
21664;BME280;10993;52.510;13.456;2023-01-31T21:43:38;56627.59;;;-146.93;83.64
21664;BME280;10993;52.510;13.456;2023-01-31T21:48:43;56631.66;;;-146.93;84.85
21664;BME280;10993;52.510;13.456;2023-01-31T21:53:43;56641.78;;;-146.93;85.84
21664;BME280;10993;52.510;13.456;2023-01-31T21:58:45;57180.41;;;-146.93;85.81
21664;BME280;10993;52.510;13.456;2023-01-31T22:03:48;56633.69;;;-146.93;86.78
21664;BME280;10993;52.510;13.456;2023-01-31T22:08:50;56643.81;;;-146.93;87.11
21664;BME280;10993;52.510;13.456;2023-01-31T22:13:51;56639.75;;;-146.93;87.21
21664;BME280;10993;52.510;13.456;2023-01-31T22:18:53;56617.47;;;-146.93;88.05
21664;BME280;10993;52.510;13.456;2023-01-31T22:23:55;56657.97;;;-146.93;88.87
21664;BME280;10993;52.510;13.456;2023-01-31T22:28:57;56625.59;;;-146.93;88.82
21664;BME280;10993;52.510;13.456;2023-01-31T22:33:59;56623.56;;;-146.93;89.04
21664;BME280;10993;52.510;13.456;2023-01-31T22:38:59;56623.56;;;-146.93;89.26
21664;BME280;10993;52.510;13.456;2023-01-31T22:44:00;56649.88;;;-146.93;89.19
21664;BME280;10993;52.510;13.456;2023-01-31T22:49:01;56629.63;;;-146.93;88.76
21664;BME280;10993;52.510;13.456;2023-01-31T22:54:02;56657.97;;;-146.93;88.63
21664;BME280;10993;52.510;13.456;2023-01-31T22:59:03;56684.31;;;-146.93;88.18
21664;BME280;10993;52.510;13.456;2023-01-31T23:04:07;56672.16;;;-146.93;87.60
21664;BME280;10993;52.510;13.456;2023-01-31T23:09:07;56660.00;;;-146.93;87.07
21664;BME280;10993;52.510;13.456;2023-01-31T23:14:08;56670.13;;;-146.93;86.62
21664;BME280;10993;52.510;13.456;2023-01-31T23:19:10;56682.28;;;-146.93;84.92
21664;BME280;10993;52.510;13.456;2023-01-31T23:24:11;56662.03;;;-146.93;84.85
21664;BME280;10993;52.510;13.456;2023-01-31T23:29:13;56607.34;;;-146.93;84.03
21664;BME280;10993;52.510;13.456;2023-01-31T23:34:15;56550.66;;;-146.93;83.48
21664;BME280;10993;52.510;13.456;2023-01-31T23:39:15;56619.50;;;-146.93;82.84
21664;BME280;10993;52.510;13.456;2023-01-31T23:44:15;56649.88;;;-146.93;81.33
21664;BME280;10993;52.510;13.456;2023-01-31T23:49:17;56641.78;;;-146.93;80.62
21664;BME280;10993;52.510;13.456;2023-01-31T23:54:17;56627.59;;;-146.93;80.06
21664;BME280;10993;52.510;13.456;2023-01-31T23:59:18;56664.06;;;-146.93;80.32
